createdAt,value
2023-02-07T00:00:57.596Z,66.96
2023-02-07T00:06:12.133Z,67.28
2023-02-07T00:11:17.534Z,66.97
2023-02-07T00:16:21.696Z,67.10
2023-02-07T00:21:26.082Z,67.03
2023-02-07T00:26:29.396Z,67.55
2023-02-07T00:31:34.637Z,67.46
2023-02-07T00:36:40.224Z,67.80
2023-02-07T00:41:44.232Z,67.61
2023-02-07T00:46:47.417Z,67.73
2023-02-07T00:51:50.556Z,67.42
2023-02-07T00:56:53.566Z,67.41
2023-02-07T01:02:00.028Z,67.62
2023-02-07T01:07:03.382Z,67.82
2023-02-07T01:12:06.558Z,67.75
2023-02-07T01:17:09.607Z,67.67
2023-02-07T01:22:12.650Z,67.66
2023-02-07T01:27:15.779Z,67.51
2023-02-07T01:32:18.856Z,68.02
2023-02-07T01:37:21.913Z,67.74
2023-02-07T01:42:27.458Z,68.15
2023-02-07T01:47:32.232Z,67.60
2023-02-07T01:52:40.012Z,67.49
2023-02-07T01:57:45.437Z,67.55
2023-02-07T02:02:48.514Z,68.07
2023-02-07T02:07:52.798Z,67.61
2023-02-07T02:13:15.081Z,68.97
2023-02-07T02:18:23.880Z,67.76
2023-02-07T02:23:57.853Z,67.94
2023-02-07T02:29:18.989Z,67.71
2023-02-07T02:34:33.104Z,68.30
2023-02-07T02:39:54.509Z,67.51
2023-02-07T02:45:37.183Z,67.53
2023-02-07T02:50:45.696Z,67.54
2023-02-07T02:56:06.196Z,67.75
2023-02-07T03:01:20.356Z,68.33
2023-02-07T03:06:43.722Z,68.43
2023-02-07T03:12:05.080Z,68.75
2023-02-07T03:17:34.323Z,69.10
2023-02-07T03:22:42.187Z,68.72
2023-02-07T03:27:47.233Z,68.90
2023-02-07T03:32:56.831Z,68.16
2023-02-07T03:38:02.465Z,68.67
2023-02-07T03:43:08.417Z,68.44
2023-02-07T03:48:11.561Z,68.14
2023-02-07T03:53:14.686Z,68.29
2023-02-07T03:58:17.801Z,68.41
2023-02-07T04:03:20.846Z,68.31
2023-02-07T04:08:24.190Z,68.07
2023-02-07T04:13:27.761Z,67.71
2023-02-07T04:18:31.247Z,68.19
2023-02-07T04:23:35.410Z,67.60
2023-02-07T04:28:38.580Z,67.77
2023-02-07T04:33:41.601Z,67.74
2023-02-07T04:38:45.111Z,68.15
2023-02-07T04:43:48.122Z,67.98
2023-02-07T04:48:51.328Z,68.32
2023-02-07T04:53:56.894Z,67.94
2023-02-07T04:58:59.880Z,67.76
2023-02-07T05:04:03.075Z,68.08
2023-02-07T05:09:06.498Z,67.94
2023-02-07T05:14:09.628Z,66.80
2023-02-07T05:19:13.089Z,66.95
2023-02-07T05:24:16.212Z,66.34
2023-02-07T05:29:19.459Z,66.12
2023-02-07T05:34:23.868Z,65.14
2023-02-07T05:39:27.005Z,64.33
2023-02-07T05:44:30.148Z,64.94
2023-02-07T05:49:33.119Z,64.38
2023-02-07T05:54:36.269Z,64.69
2023-02-07T05:59:39.309Z,64.91
2023-02-07T06:04:42.389Z,64.40
2023-02-07T06:09:45.418Z,64.39
2023-02-07T06:14:48.485Z,63.97
2023-02-07T06:19:53.627Z,64.44
2023-02-07T06:24:56.819Z,63.33
2023-02-07T06:29:59.926Z,62.71
2023-02-07T06:35:03.268Z,62.68
2023-02-07T06:40:06.845Z,61.52
2023-02-07T06:45:10.384Z,60.83
2023-02-07T06:50:13.598Z,61.17
2023-02-07T06:55:16.782Z,61.04
2023-02-07T07:00:21.092Z,60.84
2023-02-07T07:05:24.372Z,60.15
2023-02-07T07:10:27.771Z,59.96
2023-02-07T07:15:30.909Z,59.57
2023-02-07T07:20:34.007Z,59.21
2023-02-07T07:25:37.378Z,59.41
2023-02-07T07:30:40.796Z,59.27
2023-02-07T07:35:43.922Z,59.94
2023-02-07T07:40:46.921Z,59.37
2023-02-07T07:45:57.777Z,58.91
2023-02-07T07:51:00.978Z,59.51
2023-02-07T07:56:04.469Z,59.39
2023-02-07T08:01:07.676Z,59.67
2023-02-07T08:06:11.117Z,59.68
2023-02-07T08:11:14.455Z,59.53
2023-02-07T08:16:19.214Z,58.84
2023-02-07T08:21:22.746Z,59.30
2023-02-07T08:26:26.119Z,58.21
2023-02-07T08:31:29.318Z,59.37
2023-02-07T08:36:32.441Z,58.44
2023-02-07T08:41:35.748Z,58.61
2023-02-07T08:46:38.825Z,59.73
2023-02-07T08:51:43.039Z,59.72
2023-02-07T08:56:46.152Z,59.60
2023-02-07T09:01:49.241Z,60.06
2023-02-07T09:06:52.390Z,59.84
2023-02-07T09:11:55.506Z,60.42
2023-02-07T09:16:58.619Z,59.89
2023-02-07T09:22:01.692Z,60.02
2023-02-07T09:27:04.726Z,59.65
2023-02-07T09:32:07.891Z,60.31
2023-02-07T09:37:11.651Z,60.13
2023-02-07T09:42:34.258Z,60.47
2023-02-07T09:47:41.872Z,59.99
2023-02-07T09:52:59.319Z,59.65
2023-02-07T09:58:42.872Z,59.56
2023-02-07T10:04:18.170Z,59.81
2023-02-07T10:09:33.946Z,59.27
2023-02-07T10:15:02.031Z,59.33
2023-02-07T10:20:50.718Z,59.39
2023-02-07T10:26:02.654Z,58.55
2023-02-07T10:31:14.065Z,58.74
2023-02-07T10:36:18.864Z,58.50
2023-02-07T10:41:34.784Z,58.18
2023-02-07T10:46:41.117Z,58.70
2023-02-07T10:51:46.178Z,59.14
2023-02-07T10:56:52.835Z,59.37
2023-02-07T11:01:57.449Z,59.41
2023-02-07T11:07:02.785Z,59.96
2023-02-07T11:12:23.640Z,60.68
2023-02-07T11:17:26.941Z,60.87
2023-02-07T11:22:30.113Z,60.77
2023-02-07T11:27:42.774Z,61.23
2023-02-07T11:33:03.163Z,60.98
2023-02-07T11:38:15.882Z,60.94
2023-02-07T11:43:23.226Z,60.96
2023-02-07T11:48:28.475Z,61.07
2023-02-07T11:53:37.654Z,61.03
2023-02-07T11:58:47.745Z,61.28
2023-02-07T12:04:01.211Z,61.46
2023-02-07T12:09:10.535Z,61.25
2023-02-07T12:14:27.779Z,61.30
2023-02-07T12:19:36.258Z,61.51
2023-02-07T12:24:57.081Z,61.71
2023-02-07T12:30:18.253Z,61.71
2023-02-07T12:35:39.264Z,61.54
2023-02-07T12:40:59.961Z,61.72
2023-02-07T12:46:23.198Z,61.00
2023-02-07T12:51:44.209Z,60.71
2023-02-07T12:56:57.606Z,61.00
2023-02-07T13:02:19.188Z,61.49
2023-02-07T13:07:37.165Z,61.52
2023-02-07T13:12:58.759Z,61.66
2023-02-07T13:18:12.089Z,62.14
2023-02-07T13:23:26.773Z,62.74
2023-02-07T13:28:46.099Z,62.62
2023-02-07T13:33:51.057Z,63.15
2023-02-07T13:39:14.595Z,63.71
2023-02-07T13:44:35.184Z,64.01
2023-02-07T13:50:21.558Z,64.41
2023-02-07T13:55:32.719Z,63.98
2023-02-07T14:00:56.433Z,65.08
2023-02-07T14:06:26.787Z,65.51
2023-02-07T14:11:44.397Z,65.16
2023-02-07T14:16:58.656Z,66.62
2023-02-07T14:22:28.046Z,66.20
2023-02-07T14:27:35.256Z,66.49
2023-02-07T14:32:40.955Z,66.82
2023-02-07T14:37:54.455Z,66.57
2023-02-07T14:43:35.243Z,67.52
2023-02-07T14:48:49.132Z,67.57
2023-02-07T14:54:13.972Z,67.13
2023-02-07T14:59:29.170Z,67.12
2023-02-07T15:04:36.430Z,67.67
2023-02-07T15:09:39.479Z,67.55
2023-02-07T15:14:42.591Z,67.83
2023-02-07T15:19:45.650Z,67.59
2023-02-07T15:24:51.861Z,68.56
2023-02-07T15:30:01.240Z,67.94
2023-02-07T15:35:18.912Z,67.77
2023-02-07T15:40:26.663Z,67.78
2023-02-07T15:45:32.615Z,68.30
2023-02-07T15:50:37.399Z,68.62
2023-02-07T15:55:46.271Z,68.17
2023-02-07T16:00:53.565Z,67.65
2023-02-07T16:06:09.896Z,68.12
2023-02-07T16:11:38.108Z,67.91
2023-02-07T16:16:52.654Z,67.64
2023-02-07T16:22:12.569Z,68.03
2023-02-07T16:27:21.107Z,68.37
2023-02-07T16:32:28.171Z,67.82
2023-02-07T16:37:31.149Z,68.34
2023-02-07T16:42:34.232Z,67.86
2023-02-07T16:47:37.288Z,68.49
2023-02-07T16:52:40.309Z,67.95
2023-02-07T16:57:44.871Z,68.59
2023-02-07T17:02:50.640Z,68.79
2023-02-07T17:07:53.699Z,68.12
2023-02-07T17:12:57.051Z,68.12
2023-02-07T17:18:00.203Z,68.49
2023-02-07T17:23:03.300Z,68.24
2023-02-07T17:28:06.494Z,68.74
2023-02-07T17:33:10.950Z,68.39
2023-02-07T17:38:14.066Z,68.16
2023-02-07T17:43:17.118Z,68.57
2023-02-07T17:48:20.125Z,68.61
2023-02-07T17:53:23.571Z,69.07
2023-02-07T17:58:26.694Z,68.47
2023-02-07T18:03:29.704Z,68.68
2023-02-07T18:08:32.729Z,68.94
2023-02-07T18:13:35.842Z,68.71
2023-02-07T18:18:40.230Z,68.49
2023-02-07T18:23:43.398Z,68.85
2023-02-07T18:28:46.973Z,68.74
2023-02-07T18:33:51.452Z,68.87
2023-02-07T18:38:54.520Z,69.10
2023-02-07T18:43:57.552Z,68.54
2023-02-07T18:49:00.759Z,68.40
2023-02-07T18:54:03.923Z,68.77
2023-02-07T18:59:07.202Z,69.22
2023-02-07T19:04:10.224Z,69.36
2023-02-07T19:09:14.133Z,69.21
2023-02-07T19:14:26.786Z,69.21
2023-02-07T19:19:31.383Z,68.90
2023-02-07T19:24:34.391Z,69.18
2023-02-07T19:29:37.538Z,69.05
2023-02-07T19:34:40.572Z,69.34
2023-02-07T19:39:46.433Z,69.28
2023-02-07T19:44:49.971Z,68.38
2023-02-07T19:49:53.078Z,68.98
2023-02-07T19:54:56.790Z,68.49
2023-02-07T19:59:59.860Z,69.37
2023-02-07T20:05:02.855Z,68.68
2023-02-07T20:10:07.218Z,68.45
2023-02-07T20:15:11.094Z,69.12
2023-02-07T20:20:15.406Z,69.34
2023-02-07T20:25:18.454Z,69.44
2023-02-07T20:30:21.544Z,68.88
2023-02-07T20:35:24.875Z,68.69
2023-02-07T20:40:27.958Z,69.41
2023-02-07T20:45:31.011Z,68.84
2023-02-07T20:50:35.231Z,69.72
2023-02-07T20:55:38.223Z,69.88
2023-02-07T21:00:41.618Z,69.30
2023-02-07T21:05:44.840Z,69.07
2023-02-07T21:10:48.000Z,68.80
2023-02-07T21:16:02.528Z,68.69
2023-02-07T21:21:08.178Z,69.22
2023-02-07T21:26:13.941Z,69.19
2023-02-07T21:31:20.252Z,68.54
2023-02-07T21:36:29.152Z,68.90
2023-02-07T21:41:32.376Z,69.80
2023-02-07T21:46:39.692Z,68.72
2023-02-07T21:51:45.588Z,69.90
2023-02-07T21:56:50.367Z,69.49
2023-02-07T22:01:54.570Z,69.29
2023-02-07T22:06:57.840Z,69.53
2023-02-07T22:12:00.848Z,70.05
2023-02-07T22:17:03.894Z,70.02
2023-02-07T22:22:06.880Z,68.75
2023-02-07T22:27:09.855Z,69.50
2023-02-07T22:32:12.965Z,68.91
2023-02-07T22:37:15.932Z,68.30
2023-02-07T22:42:19.016Z,69.47
2023-02-07T22:47:22.084Z,68.23
2023-02-07T22:52:25.114Z,68.11
2023-02-07T22:57:28.247Z,67.96
2023-02-07T23:02:31.332Z,69.36
2023-02-07T23:07:35.268Z,68.09
2023-02-07T23:12:39.571Z,68.25
2023-02-07T23:17:42.593Z,68.17
2023-02-07T23:22:45.706Z,68.82
2023-02-07T23:27:48.905Z,68.32
2023-02-07T23:32:51.938Z,68.84
2023-02-07T23:37:54.982Z,68.06
2023-02-07T23:42:58.039Z,68.02
2023-02-07T23:48:02.654Z,67.74
2023-02-07T23:53:05.770Z,68.61
2023-02-07T23:58:08.883Z,68.62
